createdAt,value
2019-05-23T00:01:43.233Z,24.40
2019-05-23T00:04:44.555Z,24.50
2019-05-23T00:07:38.603Z,24.70
2019-05-23T00:10:37.527Z,24.90
2019-05-23T00:13:36.390Z,25.10
2019-05-23T00:16:16.435Z,25.40
2019-05-23T00:19:03.546Z,25.50
2019-05-23T00:21:39.739Z,25.50
2019-05-23T00:24:18.047Z,25.60
2019-05-23T00:26:56.599Z,25.70
2019-05-23T00:29:35.117Z,25.80
2019-05-23T00:32:13.759Z,26.00
2019-05-23T00:34:50.469Z,26.10
2019-05-23T00:37:27.094Z,26.30
2019-05-23T00:40:04.157Z,26.20
2019-05-23T00:42:40.014Z,26.30
2019-05-23T00:45:17.548Z,26.40
2019-05-23T00:48:03.088Z,26.40
2019-05-23T00:50:39.244Z,26.50
2019-05-23T00:53:19.943Z,26.50
2019-05-23T00:55:55.845Z,26.60
2019-05-23T00:58:32.814Z,26.70
2019-05-23T01:01:14.394Z,26.90
2019-05-23T01:03:52.328Z,26.80
2019-05-23T01:06:30.161Z,26.90
2019-05-23T01:09:09.412Z,27.20
2019-05-23T01:11:47.346Z,27.20
2019-05-23T01:14:25.755Z,27.30
2019-05-23T01:17:03.448Z,27.40
2019-05-23T01:19:45.130Z,27.50
2019-05-23T01:22:21.366Z,27.60
2019-05-23T01:25:03.032Z,27.60
2019-05-23T01:27:40.173Z,27.60
2019-05-23T01:30:21.596Z,27.60
2019-05-23T01:33:05.225Z,27.80
2019-05-23T01:35:46.411Z,27.80
2019-05-23T01:38:24.777Z,27.90
2019-05-23T01:41:01.225Z,28.00
2019-05-23T01:43:37.297Z,28.20
2019-05-23T01:46:18.867Z,28.20
2019-05-23T01:48:54.637Z,28.30
2019-05-23T01:51:31.342Z,28.30
2019-05-23T01:54:09.624Z,28.50
2019-05-23T01:56:47.359Z,28.60
2019-05-23T01:59:22.937Z,28.70
2019-05-23T02:01:58.766Z,28.60
2019-05-23T02:04:34.728Z,28.70
2019-05-23T02:07:12.080Z,28.80
2019-05-23T02:09:50.056Z,28.90
2019-05-23T02:12:30.369Z,28.90
2019-05-23T02:15:07.714Z,28.90
2019-05-23T02:17:48.454Z,29.00
2019-05-23T02:20:24.742Z,29.20
2019-05-23T02:23:01.158Z,29.30
2019-05-23T02:25:38.301Z,29.30
2019-05-23T02:28:14.376Z,29.40
2019-05-23T02:30:52.157Z,29.40
2019-05-23T02:33:28.858Z,29.60
2019-05-23T02:36:06.554Z,29.70
2019-05-23T02:38:57.735Z,29.70
2019-05-23T02:41:37.540Z,29.80
2019-05-23T02:44:19.165Z,29.80
2019-05-23T02:47:04.087Z,29.80
2019-05-23T02:49:41.780Z,30.00
2019-05-23T02:52:25.304Z,30.10
2019-05-23T02:55:01.628Z,30.10
2019-05-23T02:57:37.605Z,30.40
2019-05-23T03:00:50.773Z,30.60
2019-05-23T03:03:11.539Z,30.70
2019-05-23T03:05:49.120Z,30.90
2019-05-23T03:08:26.435Z,30.90
2019-05-23T03:11:23.901Z,31.00
2019-05-23T03:14:01.505Z,31.10
2019-05-23T03:16:38.561Z,31.20
2019-05-23T03:19:25.346Z,31.30
2019-05-23T03:22:07.130Z,31.10
2019-05-23T03:24:43.484Z,31.10
2019-05-23T03:27:24.661Z,31.00
2019-05-23T03:30:00.586Z,31.10
2019-05-23T03:32:43.095Z,31.20
2019-05-23T03:35:30.827Z,31.40
2019-05-23T03:38:09.542Z,31.60
2019-05-23T03:40:46.974Z,31.30
2019-05-23T03:43:22.870Z,31.70
2019-05-23T03:46:11.941Z,31.50
2019-05-23T03:48:49.807Z,31.40
2019-05-23T03:51:26.212Z,31.60
2019-05-23T03:54:05.088Z,31.40
2019-05-23T03:56:47.635Z,31.70
2019-05-23T03:59:24.760Z,31.60
2019-05-23T04:02:01.725Z,31.80
2019-05-23T04:04:37.446Z,31.80
2019-05-23T04:07:17.069Z,31.90
2019-05-23T04:09:54.578Z,32.10
2019-05-23T04:12:32.575Z,32.30
2019-05-23T04:15:09.719Z,32.30
2019-05-23T04:17:47.170Z,32.40
2019-05-23T04:20:24.715Z,32.30
2019-05-23T04:23:00.621Z,32.20
2019-05-23T04:25:36.476Z,32.40
2019-05-23T04:28:16.992Z,32.50
2019-05-23T04:30:55.350Z,32.40
2019-05-23T04:33:32.509Z,32.50
2019-05-23T04:36:09.567Z,32.60
2019-05-23T04:38:45.481Z,32.50
2019-05-23T04:41:23.210Z,32.40
2019-05-23T04:44:00.811Z,32.70
2019-05-23T04:46:43.268Z,32.80
2019-05-23T04:49:21.009Z,32.80
2019-05-23T04:51:57.891Z,32.90
2019-05-23T04:54:35.319Z,33.00
2019-05-23T04:57:12.695Z,33.00
2019-05-23T04:59:52.270Z,33.00
2019-05-23T05:02:34.458Z,33.10
2019-05-23T05:05:11.003Z,33.10
2019-05-23T05:07:48.108Z,33.40
2019-05-23T05:10:31.362Z,33.30
2019-05-23T05:13:11.486Z,33.50
2019-05-23T05:15:58.243Z,33.40
2019-05-23T05:18:36.771Z,33.30
2019-05-23T05:21:16.460Z,32.90
2019-05-23T05:23:54.283Z,33.40
2019-05-23T05:26:44.260Z,33.40
2019-05-23T05:29:21.442Z,33.50
2019-05-23T05:32:03.695Z,33.40
2019-05-23T05:34:37.799Z,33.40
2019-05-23T05:37:14.536Z,33.60
2019-05-23T05:39:52.702Z,33.80
2019-05-23T05:42:30.722Z,34.00
2019-05-23T05:45:07.943Z,34.00
2019-05-23T05:47:49.928Z,33.80
2019-05-23T05:50:26.872Z,33.80
2019-05-23T05:53:09.765Z,33.90
2019-05-23T05:55:49.552Z,33.90
2019-05-23T05:58:35.337Z,34.10
2019-05-23T06:01:31.209Z,34.10
2019-05-23T06:04:02.141Z,34.10
2019-05-23T06:06:42.554Z,33.80
2019-05-23T06:09:27.634Z,33.90
2019-05-23T06:12:03.464Z,33.70
2019-05-23T06:14:40.426Z,33.90
2019-05-23T06:17:22.010Z,34.20
2019-05-23T06:20:00.346Z,34.10
2019-05-23T06:22:40.902Z,33.70
2019-05-23T06:25:19.018Z,33.90
2019-05-23T06:27:59.425Z,34.00
2019-05-23T06:30:41.477Z,34.10
2019-05-23T06:33:23.059Z,34.20
2019-05-23T06:35:56.140Z,33.70
2019-05-23T06:38:35.297Z,33.80
2019-05-23T06:41:12.674Z,34.20
2019-05-23T06:43:50.984Z,34.50
2019-05-23T06:46:28.095Z,34.50
2019-05-23T06:49:10.854Z,34.30
2019-05-23T06:51:54.476Z,34.50
2019-05-23T06:54:38.940Z,34.70
2019-05-23T06:57:16.416Z,34.80
2019-05-23T06:59:56.527Z,34.80
2019-05-23T07:02:42.204Z,34.80
2019-05-23T07:05:21.428Z,34.70
2019-05-23T07:07:58.635Z,34.30
2019-05-23T07:10:34.542Z,34.60
2019-05-23T07:13:13.324Z,34.70
2019-05-23T07:15:57.969Z,34.60
2019-05-23T07:18:35.410Z,34.20
2019-05-23T07:21:12.251Z,34.10
2019-05-23T07:23:53.230Z,34.10
2019-05-23T07:29:24.560Z,34.50
2019-05-23T07:32:01.425Z,34.50
2019-05-23T07:34:38.168Z,34.40
2019-05-23T07:37:15.644Z,34.40
2019-05-23T07:40:00.693Z,34.60
2019-05-23T07:42:43.588Z,34.60
2019-05-23T07:45:52.740Z,34.70
2019-05-23T07:48:32.430Z,34.70
2019-05-23T07:51:08.335Z,34.00
2019-05-23T07:53:49.471Z,34.20
2019-05-23T07:56:31.396Z,34.00
2019-05-23T07:59:11.798Z,34.10
2019-05-23T08:01:53.112Z,34.10
2019-05-23T08:04:28.997Z,34.10
2019-05-23T08:07:03.754Z,34.40
2019-05-23T08:09:42.776Z,34.40
2019-05-23T08:12:19.285Z,34.40
2019-05-23T08:14:55.456Z,33.80
2019-05-23T08:17:33.324Z,33.90
2019-05-23T08:20:09.699Z,33.30
2019-05-23T08:22:48.104Z,33.40
2019-05-23T08:25:27.635Z,33.60
2019-05-23T08:28:03.597Z,33.60
2019-05-23T08:30:40.575Z,33.80
2019-05-23T08:33:19.435Z,33.80
2019-05-23T08:35:55.246Z,33.80
2019-05-23T08:38:32.675Z,33.70
2019-05-23T08:41:10.399Z,33.60
2019-05-23T08:43:47.031Z,33.80
2019-05-23T08:46:25.296Z,33.90
2019-05-23T08:49:05.483Z,33.60
2019-05-23T08:51:41.144Z,33.60
2019-05-23T08:54:20.610Z,33.60
2019-05-23T08:57:00.595Z,33.30
2019-05-23T08:59:36.639Z,33.10
2019-05-23T09:02:17.832Z,33.10
2019-05-23T09:05:04.372Z,33.00
2019-05-23T09:07:33.553Z,33.10
2019-05-23T09:10:12.802Z,32.90
2019-05-23T09:12:48.469Z,32.80
2019-05-23T09:15:26.778Z,32.80
2019-05-23T09:18:04.210Z,32.80
2019-05-23T09:20:40.573Z,32.80
2019-05-23T09:23:20.970Z,32.80
2019-05-23T09:25:56.874Z,32.60
2019-05-23T09:28:32.649Z,32.60
2019-05-23T09:31:11.866Z,32.60
2019-05-23T09:33:47.435Z,32.60
2019-05-23T09:36:23.520Z,32.60
2019-05-23T09:38:59.676Z,32.60
2019-05-23T09:41:36.181Z,32.40
2019-05-23T09:44:13.356Z,32.30
2019-05-23T09:46:49.622Z,32.40
2019-05-23T09:49:25.268Z,32.30
2019-05-23T09:52:03.210Z,32.30
2019-05-23T09:54:39.079Z,32.20
2019-05-23T09:57:19.961Z,32.10
2019-05-23T09:59:57.316Z,32.00
2019-05-23T10:02:37.582Z,31.80
2019-05-23T10:05:17.380Z,31.50
2019-05-23T10:07:53.190Z,31.30
2019-05-23T10:10:34.686Z,31.10
2019-05-23T10:13:16.239Z,31.00
2019-05-23T10:15:53.747Z,30.80
2019-05-23T10:18:36.478Z,30.60
2019-05-23T10:21:14.746Z,30.50
2019-05-23T10:23:51.035Z,30.40
2019-05-23T10:26:28.050Z,30.20
2019-05-23T10:29:05.516Z,30.00
2019-05-23T10:31:41.167Z,29.90
2019-05-23T10:34:18.733Z,29.80
2019-05-23T10:36:54.367Z,29.60
2019-05-23T10:39:32.377Z,29.50
2019-05-23T10:42:08.327Z,29.50
2019-05-23T10:44:44.953Z,29.30
2019-05-23T10:47:21.212Z,29.20
2019-05-23T10:49:58.046Z,29.10
2019-05-23T10:52:35.721Z,29.00
2019-05-23T10:55:14.124Z,28.90
2019-05-23T10:57:51.615Z,28.80
2019-05-23T11:00:29.711Z,28.60
2019-05-23T11:03:08.046Z,28.60
2019-05-23T11:05:47.047Z,28.40
2019-05-23T11:08:29.293Z,28.20
2019-05-23T11:11:05.132Z,28.20
2019-05-23T11:13:43.656Z,28.20
2019-05-23T11:16:20.420Z,28.10
2019-05-23T11:18:56.352Z,28.10
2019-05-23T11:21:33.849Z,28.10
2019-05-23T11:24:11.274Z,28.00
2019-05-23T11:26:52.545Z,27.90
2019-05-23T11:29:30.091Z,27.80
2019-05-23T11:32:19.835Z,27.80
2019-05-23T11:34:53.779Z,27.60
2019-05-23T11:37:31.779Z,27.50
2019-05-23T11:40:09.522Z,27.40
2019-05-23T11:42:48.206Z,27.40
2019-05-23T11:45:26.412Z,27.30
2019-05-23T11:48:02.293Z,27.30
2019-05-23T11:50:38.453Z,27.10
2019-05-23T11:53:16.720Z,27.10
2019-05-23T11:55:57.312Z,27.00
2019-05-23T11:58:34.209Z,26.90
2019-05-23T12:01:20.987Z,26.80
2019-05-23T12:03:57.948Z,26.80
2019-05-23T12:06:53.544Z,26.80
2019-05-23T12:09:16.876Z,26.70
2019-05-23T12:11:54.167Z,26.60
2019-05-23T12:14:30.130Z,26.50
2019-05-23T12:17:07.010Z,26.50
2019-05-23T12:19:44.509Z,26.30
2019-05-23T12:22:26.134Z,26.30
2019-05-23T12:25:20.782Z,26.20
2019-05-23T12:27:47.388Z,26.10
2019-05-23T12:30:25.114Z,26.20
2019-05-23T12:33:04.795Z,26.10
2019-05-23T12:35:40.344Z,26.00
2019-05-23T12:38:16.763Z,26.10
2019-05-23T12:41:03.343Z,26.00
2019-05-23T12:43:42.122Z,25.80
2019-05-23T12:46:25.086Z,25.80
2019-05-23T12:49:20.460Z,25.70
2019-05-23T12:52:00.981Z,25.70
2019-05-23T12:54:38.735Z,25.60
2019-05-23T12:57:16.983Z,25.60
2019-05-23T13:00:00.344Z,25.40
2019-05-23T13:02:37.210Z,25.50
2019-05-23T13:05:16.250Z,25.50
2019-05-23T13:10:54.308Z,25.40
2019-05-23T13:13:34.001Z,25.30
2019-05-23T13:16:12.617Z,25.30
2019-05-23T13:18:48.086Z,25.30
2019-05-23T13:21:25.360Z,25.30
2019-05-23T13:24:04.732Z,25.20
2019-05-23T13:26:44.138Z,25.20
2019-05-23T13:29:24.670Z,25.20
2019-05-23T13:32:04.368Z,25.20
2019-05-23T13:34:44.475Z,25.20
2019-05-23T13:37:25.529Z,25.10
2019-05-23T13:40:10.414Z,25.00
2019-05-23T13:45:45.071Z,25.00
2019-05-23T13:48:28.331Z,25.00
2019-05-23T13:51:12.936Z,24.90
2019-05-23T13:53:51.492Z,24.90
2019-05-23T13:56:30.655Z,24.90
2019-05-23T13:59:08.198Z,24.70
2019-05-23T14:01:49.009Z,24.80
2019-05-23T14:04:30.213Z,24.80
2019-05-23T14:07:11.718Z,24.80
2019-05-23T14:09:53.495Z,24.70
2019-05-23T14:12:47.062Z,24.70
2019-05-23T14:15:24.787Z,24.70
2019-05-23T14:18:12.735Z,24.70
2019-05-23T14:23:55.171Z,24.60
2019-05-23T14:26:39.091Z,24.60
2019-05-23T14:29:26.234Z,24.50
2019-05-23T14:32:28.379Z,24.50
2019-05-23T14:35:07.273Z,24.40
2019-05-23T14:38:08.450Z,24.40
2019-05-23T14:41:04.884Z,24.20
2019-05-23T14:43:46.944Z,24.30
2019-05-23T14:46:43.343Z,24.30
2019-05-23T14:49:25.109Z,24.30
2019-05-23T14:52:08.455Z,24.20
2019-05-23T14:54:47.865Z,24.20
2019-05-23T14:57:35.755Z,24.10
2019-05-23T15:00:14.631Z,24.10
2019-05-23T15:02:57.381Z,24.00
2019-05-23T15:05:36.829Z,24.00
2019-05-23T15:08:21.469Z,24.00
2019-05-23T15:10:58.976Z,24.00
2019-05-23T15:16:32.426Z,23.90
2019-05-23T15:19:36.426Z,23.90
2019-05-23T15:21:57.042Z,23.90
2019-05-23T15:24:45.179Z,23.90
2019-05-23T15:27:24.819Z,23.80
2019-05-23T15:30:10.584Z,23.70
2019-05-23T15:32:56.855Z,23.80
2019-05-23T15:35:51.581Z,23.70
2019-05-23T15:38:38.059Z,23.60
2019-05-23T15:41:17.242Z,23.60
2019-05-23T15:43:55.452Z,23.60
2019-05-23T15:46:32.607Z,23.70
2019-05-23T15:49:21.951Z,23.60
2019-05-23T15:52:08.232Z,23.70
2019-05-23T15:54:49.584Z,23.40
2019-05-23T15:57:28.635Z,23.60
2019-05-23T16:00:12.870Z,23.50
2019-05-23T16:02:58.272Z,23.40
2019-05-23T16:05:42.832Z,23.40
2019-05-23T16:08:28.717Z,23.40
2019-05-23T16:11:12.116Z,23.40
2019-05-23T16:13:52.110Z,23.40
2019-05-23T16:16:32.565Z,23.40
2019-05-23T16:22:14.296Z,23.30
2019-05-23T16:24:56.738Z,23.30
2019-05-23T16:27:33.516Z,23.30
2019-05-23T16:30:13.459Z,23.20
2019-05-23T16:33:02.557Z,23.10
2019-05-23T16:35:43.118Z,23.20
2019-05-23T16:38:24.257Z,23.20
2019-05-23T16:41:06.308Z,23.20
2019-05-23T16:43:45.686Z,23.10
2019-05-23T16:46:27.020Z,23.00
2019-05-23T16:49:06.777Z,23.10
2019-05-23T16:51:46.788Z,23.00
2019-05-23T16:54:28.401Z,23.00
2019-05-23T16:57:26.179Z,23.00
2019-05-23T17:00:06.877Z,23.00
2019-05-23T17:02:47.000Z,23.00
2019-05-23T17:05:42.120Z,23.00
2019-05-23T17:08:19.599Z,23.00
2019-05-23T17:11:06.796Z,22.90
2019-05-23T17:13:45.530Z,23.00
2019-05-23T17:16:39.322Z,22.90
2019-05-23T17:19:21.494Z,22.90
2019-05-23T17:21:58.253Z,22.80
2019-05-23T17:24:46.989Z,22.80
2019-05-23T17:27:43.011Z,22.70
2019-05-23T17:30:29.064Z,22.70
2019-05-23T17:33:05.343Z,22.70
2019-05-23T17:35:42.998Z,22.60
2019-05-23T17:38:22.133Z,22.70
2019-05-23T17:41:00.228Z,22.50
2019-05-23T17:43:37.924Z,22.60
2019-05-23T17:46:13.854Z,22.60
2019-05-23T17:48:51.183Z,22.60
2019-05-23T17:51:27.711Z,22.60
2019-05-23T17:54:07.248Z,22.70
2019-05-23T17:56:44.990Z,22.60
2019-05-23T17:59:22.506Z,22.60
2019-05-23T18:02:00.028Z,22.50
2019-05-23T18:04:40.645Z,22.50
2019-05-23T18:07:22.854Z,22.50
2019-05-23T18:10:00.016Z,22.50
2019-05-23T18:12:38.011Z,22.50
2019-05-23T18:15:16.530Z,22.40
2019-05-23T18:17:52.483Z,22.40
2019-05-23T18:20:28.564Z,22.30
2019-05-23T18:23:05.965Z,22.30
2019-05-23T18:25:43.475Z,22.20
2019-05-23T18:28:24.602Z,22.10
2019-05-23T18:31:13.931Z,22.20
2019-05-23T18:33:52.685Z,22.00
2019-05-23T18:36:28.498Z,22.00
2019-05-23T18:39:04.488Z,22.10
2019-05-23T18:41:40.240Z,22.00
2019-05-23T18:44:17.672Z,22.00
2019-05-23T18:46:58.708Z,22.00
2019-05-23T18:49:34.639Z,22.00
2019-05-23T18:52:10.716Z,22.00
2019-05-23T18:54:46.675Z,21.90
2019-05-23T18:57:24.636Z,22.00
2019-05-23T19:00:00.426Z,21.90
2019-05-23T19:02:36.487Z,21.90
2019-05-23T19:05:14.152Z,21.80
2019-05-23T19:07:51.408Z,22.00
2019-05-23T19:10:27.260Z,21.70
2019-05-23T19:13:02.983Z,21.80
2019-05-23T19:15:39.745Z,21.80
2019-05-23T19:18:17.520Z,21.90
2019-05-23T19:20:58.093Z,21.80
2019-05-23T19:23:33.760Z,21.80
2019-05-23T19:26:11.048Z,21.60
2019-05-23T19:28:46.657Z,21.70
2019-05-23T19:31:26.806Z,21.70
2019-05-23T19:34:06.848Z,21.90
2019-05-23T19:36:44.429Z,21.90
2019-05-23T19:39:20.109Z,21.70
2019-05-23T19:41:56.044Z,21.80
2019-05-23T19:44:36.741Z,21.60
2019-05-23T19:47:13.301Z,21.70
2019-05-23T19:49:48.888Z,21.50
2019-05-23T19:52:29.214Z,21.60
2019-05-23T19:55:04.924Z,21.60
2019-05-23T19:57:40.975Z,21.60
2019-05-23T20:00:25.021Z,21.60
2019-05-23T20:03:03.999Z,21.60
2019-05-23T20:05:44.033Z,21.50
2019-05-23T20:08:21.727Z,21.40
2019-05-23T20:10:58.865Z,21.50
2019-05-23T20:13:34.816Z,21.50
2019-05-23T20:16:11.816Z,21.50
2019-05-23T20:18:47.983Z,21.50
2019-05-23T20:21:25.419Z,21.50
2019-05-23T20:24:02.659Z,21.40
2019-05-23T20:26:40.042Z,21.40
2019-05-23T20:29:15.877Z,21.30
2019-05-23T20:31:51.493Z,21.20
2019-05-23T20:34:28.797Z,21.30
2019-05-23T20:37:06.184Z,21.30
2019-05-23T20:39:43.520Z,21.30
2019-05-23T20:42:19.391Z,21.30
2019-05-23T20:44:55.214Z,21.20
2019-05-23T20:47:31.097Z,21.20
2019-05-23T20:50:07.623Z,21.20
2019-05-23T20:52:44.901Z,21.20
2019-05-23T20:55:20.986Z,21.10
2019-05-23T20:57:56.728Z,21.20
2019-05-23T21:00:36.665Z,21.10
2019-05-23T21:03:12.436Z,21.00
2019-05-23T21:05:48.382Z,21.00
2019-05-23T21:08:24.416Z,21.00
2019-05-23T21:10:59.998Z,21.00
2019-05-23T21:13:38.178Z,21.00
2019-05-23T21:16:13.775Z,20.90
2019-05-23T21:18:50.117Z,20.90
2019-05-23T21:21:26.247Z,21.10
2019-05-23T21:24:01.848Z,21.00
2019-05-23T21:26:37.215Z,21.00
2019-05-23T21:29:12.939Z,20.90
2019-05-23T21:31:48.668Z,20.90
2019-05-23T21:34:25.656Z,20.80
2019-05-23T21:37:01.083Z,20.90
2019-05-23T21:39:36.908Z,20.80
2019-05-23T21:42:12.262Z,20.70
2019-05-23T21:44:47.844Z,20.90
2019-05-23T21:47:23.467Z,20.90
2019-05-23T21:49:59.040Z,20.90
2019-05-23T21:52:36.211Z,20.80
2019-05-23T21:55:12.655Z,20.80
2019-05-23T21:57:48.079Z,20.90
2019-05-23T22:00:26.640Z,20.90
2019-05-23T22:03:03.980Z,20.90
2019-05-23T22:05:41.005Z,20.80
2019-05-23T22:08:16.335Z,20.90
2019-05-23T22:10:52.056Z,20.90
2019-05-23T22:13:27.361Z,21.00
2019-05-23T22:16:03.479Z,21.00
2019-05-23T22:18:40.063Z,21.10
2019-05-23T22:21:17.823Z,21.10
2019-05-23T22:23:53.992Z,21.00
2019-05-23T22:26:30.234Z,21.10
2019-05-23T22:29:06.010Z,21.40
2019-05-23T22:31:41.914Z,21.40
2019-05-23T22:34:26.332Z,21.50
2019-05-23T22:37:03.767Z,21.50
2019-05-23T22:39:40.335Z,21.60
2019-05-23T22:42:16.820Z,21.70
2019-05-23T22:44:52.450Z,21.80
2019-05-23T22:47:33.111Z,21.80
2019-05-23T22:50:09.321Z,21.80
2019-05-23T22:52:45.212Z,22.00
2019-05-23T22:55:21.032Z,22.00
2019-05-23T22:57:58.261Z,22.10
2019-05-23T23:00:41.018Z,22.20
2019-05-23T23:03:17.795Z,22.30
2019-05-23T23:05:53.346Z,22.40
2019-05-23T23:08:29.678Z,22.60
2019-05-23T23:11:05.110Z,22.60
2019-05-23T23:13:41.245Z,22.70
2019-05-23T23:16:18.732Z,22.90
2019-05-23T23:18:55.140Z,23.10
2019-05-23T23:21:30.721Z,23.20
2019-05-23T23:24:06.754Z,23.40
2019-05-23T23:26:44.187Z,23.50
2019-05-23T23:29:20.442Z,23.60
2019-05-23T23:31:56.203Z,23.60
2019-05-23T23:34:32.129Z,23.70
2019-05-23T23:37:07.834Z,23.80
2019-05-23T23:39:44.700Z,24.00
2019-05-23T23:42:20.457Z,24.20
2019-05-23T23:44:55.026Z,24.30
2019-05-23T23:47:47.863Z,24.50
2019-05-23T23:50:41.063Z,24.70
2019-05-23T23:53:35.373Z,24.90
2019-05-23T23:56:28.711Z,25.00
2019-05-23T23:59:04.351Z,25.30
